Terminal Aerodrome Forecast
Issued by NWS

Home | Current Version | Previous Version | Text Only | Print | Product List | Glossary On
Versions: 1 2 3 4 5 6 7 8 9 10 11 12 13
000
FTUS44 KCRP 240537
TAFLRD
TAF
KLRD 240537Z 2406/2506 14011KT P6SM SCT250
     FM241100 16005KT P6SM SCT050 SCT250
     FM241600 15010KT P6SM SCT040
     FM242000 14015G20KT P6SM SCT060
     FM250300 13014KT P6SM SCT250=

USA.gov is the U.S. government's official web portal to all federal, state and local government web resources and services.